sensor_id;sensor_type;location;lat;lon;timestamp;pressure;altitude;pressure_sealevel;temperature;humidity
10881;BME280;5493;48.884;8.338;2023-05-02T00:01:55;100391.84;;;12.20;100.00
10881;BME280;5493;48.884;8.338;2023-05-02T00:04:22;100395.75;;;12.24;100.00
10881;BME280;5493;48.884;8.338;2023-05-02T00:06:50;100400.38;;;12.35;100.00
10881;BME280;5493;48.884;8.338;2023-05-02T00:09:16;100392.94;;;12.30;100.00
10881;BME280;5493;48.884;8.338;2023-05-02T00:11:43;100387.84;;;12.41;100.00
10881;BME280;5493;48.884;8.338;2023-05-02T00:14:09;100394.59;;;12.31;100.00
10881;BME280;5493;48.884;8.338;2023-05-02T00:16:37;100391.59;;;12.40;100.00
10881;BME280;5493;48.884;8.338;2023-05-02T00:19:04;100391.16;;;12.24;100.00
10881;BME280;5493;48.884;8.338;2023-05-02T00:21:30;100386.50;;;12.31;100.00
10881;BME280;5493;48.884;8.338;2023-05-02T00:23:57;100390.66;;;12.46;100.00
10881;BME280;5493;48.884;8.338;2023-05-02T00:26:24;100388.00;;;12.27;100.00
10881;BME280;5493;48.884;8.338;2023-05-02T00:28:52;100386.81;;;12.53;100.00
10881;BME280;5493;48.884;8.338;2023-05-02T00:31:18;100385.31;;;12.57;100.00
10881;BME280;5493;48.884;8.338;2023-05-02T00:33:46;100388.28;;;12.67;100.00
10881;BME280;5493;48.884;8.338;2023-05-02T00:36:13;100381.25;;;12.78;100.00
10881;BME280;5493;48.884;8.338;2023-05-02T00:38:39;100388.06;;;12.80;100.00
10881;BME280;5493;48.884;8.338;2023-05-02T00:41:06;100385.28;;;12.87;100.00
10881;BME280;5493;48.884;8.338;2023-05-02T00:43:33;100388.72;;;12.64;100.00
10881;BME280;5493;48.884;8.338;2023-05-02T00:46:00;100378.78;;;12.76;100.00
10881;BME280;5493;48.884;8.338;2023-05-02T00:48:27;100385.09;;;12.70;100.00
10881;BME280;5493;48.884;8.338;2023-05-02T00:50:55;100379.31;;;12.67;100.00
10881;BME280;5493;48.884;8.338;2023-05-02T00:53:22;100385.66;;;12.61;100.00
10881;BME280;5493;48.884;8.338;2023-05-02T00:55:49;100386.03;;;12.64;100.00
10881;BME280;5493;48.884;8.338;2023-05-02T00:58:17;100379.56;;;12.65;100.00
10881;BME280;5493;48.884;8.338;2023-05-02T01:00:55;100380.16;;;12.67;100.00
10881;BME280;5493;48.884;8.338;2023-05-02T01:03:30;100380.03;;;12.62;100.00
10881;BME280;5493;48.884;8.338;2023-05-02T01:06:10;100392.50;;;12.63;100.00
10881;BME280;5493;48.884;8.338;2023-05-02T01:08:46;100391.66;;;12.63;100.00
10881;BME280;5493;48.884;8.338;2023-05-02T01:11:22;100386.59;;;12.66;100.00
10881;BME280;5493;48.884;8.338;2023-05-02T01:13:54;100386.75;;;12.71;100.00
10881;BME280;5493;48.884;8.338;2023-05-02T01:16:24;100400.91;;;12.55;100.00
10881;BME280;5493;48.884;8.338;2023-05-02T01:18:52;100398.16;;;12.62;100.00
10881;BME280;5493;48.884;8.338;2023-05-02T01:21:21;100393.38;;;12.46;100.00
10881;BME280;5493;48.884;8.338;2023-05-02T01:23:56;100409.13;;;12.49;100.00
10881;BME280;5493;48.884;8.338;2023-05-02T01:26:29;100401.41;;;12.34;100.00
10881;BME280;5493;48.884;8.338;2023-05-02T01:29:02;100404.00;;;12.29;100.00
10881;BME280;5493;48.884;8.338;2023-05-02T01:31:33;100395.19;;;12.33;100.00
10881;BME280;5493;48.884;8.338;2023-05-02T01:34:00;100395.78;;;12.36;100.00
10881;BME280;5493;48.884;8.338;2023-05-02T01:36:29;100398.44;;;12.24;100.00
10881;BME280;5493;48.884;8.338;2023-05-02T01:38:59;100401.56;;;12.39;100.00
10881;BME280;5493;48.884;8.338;2023-05-02T01:41:30;100401.56;;;12.39;100.00
10881;BME280;5493;48.884;8.338;2023-05-02T01:43:58;100403.00;;;12.23;100.00
10881;BME280;5493;48.884;8.338;2023-05-02T01:46:30;100405.81;;;11.99;100.00
10881;BME280;5493;48.884;8.338;2023-05-02T01:49:00;100406.44;;;11.82;100.00
10881;BME280;5493;48.884;8.338;2023-05-02T01:51:31;100424.66;;;11.87;100.00
10881;BME280;5493;48.884;8.338;2023-05-02T01:54:01;100425.34;;;11.82;100.00
10881;BME280;5493;48.884;8.338;2023-05-02T01:56:32;100437.66;;;11.78;100.00
10881;BME280;5493;48.884;8.338;2023-05-02T01:59:00;100438.09;;;11.94;100.00
10881;BME280;5493;48.884;8.338;2023-05-02T02:01:29;100438.41;;;12.04;100.00
10881;BME280;5493;48.884;8.338;2023-05-02T02:03:56;100437.56;;;12.03;100.00
10881;BME280;5493;48.884;8.338;2023-05-02T02:06:24;100448.69;;;12.13;100.00
10881;BME280;5493;48.884;8.338;2023-05-02T02:08:51;100455.13;;;11.94;100.00
10881;BME280;5493;48.884;8.338;2023-05-02T02:11:23;100464.97;;;11.89;100.00
10881;BME280;5493;48.884;8.338;2023-05-02T02:13:56;100464.78;;;11.83;100.00
10881;BME280;5493;48.884;8.338;2023-05-02T02:16:33;100473.44;;;11.92;100.00
10881;BME280;5493;48.884;8.338;2023-05-02T02:19:05;100473.06;;;11.64;100.00
10881;BME280;5493;48.884;8.338;2023-05-02T02:21:34;100473.44;;;11.92;100.00
10881;BME280;5493;48.884;8.338;2023-05-02T02:24:04;100483.28;;;12.05;100.00
10881;BME280;5493;48.884;8.338;2023-05-02T02:26:32;100493.09;;;11.81;100.00
10881;BME280;5493;48.884;8.338;2023-05-02T02:28:59;100488.28;;;11.58;100.00
10881;BME280;5493;48.884;8.338;2023-05-02T02:31:29;100483.88;;;11.64;100.00
10881;BME280;5493;48.884;8.338;2023-05-02T02:33:57;100478.94;;;11.61;100.00
10881;BME280;5493;48.884;8.338;2023-05-02T02:36:29;100485.81;;;11.81;100.00
10881;BME280;5493;48.884;8.338;2023-05-02T02:39:07;100487.38;;;11.71;100.00
10881;BME280;5493;48.884;8.338;2023-05-02T02:41:40;100486.34;;;11.72;100.00
10881;BME280;5493;48.884;8.338;2023-05-02T02:44:17;100481.91;;;11.77;100.00
10881;BME280;5493;48.884;8.338;2023-05-02T02:46:49;100485.66;;;11.76;100.00
10881;BME280;5493;48.884;8.338;2023-05-02T02:49:26;100481.31;;;11.75;100.00
10881;BME280;5493;48.884;8.338;2023-05-02T02:52:02;100486.03;;;11.80;100.00
10881;BME280;5493;48.884;8.338;2023-05-02T02:54:32;100488.28;;;11.83;100.00
10881;BME280;5493;48.884;8.338;2023-05-02T02:57:03;100487.63;;;11.88;100.00
10881;BME280;5493;48.884;8.338;2023-05-02T02:59:34;100487.63;;;11.88;100.00
10881;BME280;5493;48.884;8.338;2023-05-02T03:02:04;100493.19;;;11.93;100.00
10881;BME280;5493;48.884;8.338;2023-05-02T03:04:35;100488.38;;;11.95;100.00
10881;BME280;5493;48.884;8.338;2023-05-02T03:07:03;100495.13;;;11.86;100.00
10881;BME280;5493;48.884;8.338;2023-05-02T03:09:39;100499.91;;;11.59;100.00
10881;BME280;5493;48.884;8.338;2023-05-02T03:12:06;100509.81;;;11.40;100.00
10881;BME280;5493;48.884;8.338;2023-05-02T03:14:32;100516.00;;;11.47;100.00
10881;BME280;5493;48.884;8.338;2023-05-02T03:16:59;100514.94;;;11.48;100.00
10881;BME280;5493;48.884;8.338;2023-05-02T03:19:25;100523.56;;;11.63;100.00
10881;BME280;5493;48.884;8.338;2023-05-02T03:21:53;100520.84;;;11.63;100.00
10881;BME280;5493;48.884;8.338;2023-05-02T03:24:20;100528.00;;;11.51;100.00
10881;BME280;5493;48.884;8.338;2023-05-02T03:26:47;100533.25;;;11.46;100.00
10881;BME280;5493;48.884;8.338;2023-05-02T03:29:13;100528.06;;;11.69;100.00
10881;BME280;5493;48.884;8.338;2023-05-02T03:31:40;100536.03;;;11.89;100.00
10881;BME280;5493;48.884;8.338;2023-05-02T03:34:06;100528.06;;;11.94;100.00
10881;BME280;5493;48.884;8.338;2023-05-02T03:36:33;100523.69;;;12.00;100.00
10881;BME280;5493;48.884;8.338;2023-05-02T03:39:00;100526.75;;;12.03;100.00
10881;BME280;5493;48.884;8.338;2023-05-02T03:41:27;100527.34;;;12.05;100.00
10881;BME280;5493;48.884;8.338;2023-05-02T03:43:53;100528.25;;;11.99;100.00
10881;BME280;5493;48.884;8.338;2023-05-02T03:46:20;100526.09;;;11.83;100.00
10881;BME280;5493;48.884;8.338;2023-05-02T03:48:46;100531.28;;;11.60;100.00
10881;BME280;5493;48.884;8.338;2023-05-02T03:51:13;100530.00;;;11.62;100.00
10881;BME280;5493;48.884;8.338;2023-05-02T03:53:39;100524.16;;;11.72;100.00
10881;BME280;5493;48.884;8.338;2023-05-02T03:56:08;100526.66;;;11.67;100.00
10881;BME280;5493;48.884;8.338;2023-05-02T03:58:34;100520.78;;;11.70;100.00
10881;BME280;5493;48.884;8.338;2023-05-02T04:01:01;100519.50;;;11.79;100.00
10881;BME280;5493;48.884;8.338;2023-05-02T04:03:27;100522.44;;;11.77;100.00
10881;BME280;5493;48.884;8.338;2023-05-02T04:05:54;100527.66;;;11.72;100.00
10881;BME280;5493;48.884;8.338;2023-05-02T04:08:20;100530.25;;;11.86;100.00
10881;BME280;5493;48.884;8.338;2023-05-02T04:10:49;100536.91;;;11.83;100.00
10881;BME280;5493;48.884;8.338;2023-05-02T04:13:17;100539.19;;;11.86;100.00
10881;BME280;5493;48.884;8.338;2023-05-02T04:15:44;100550.59;;;11.88;100.00
10881;BME280;5493;48.884;8.338;2023-05-02T04:18:10;100557.28;;;11.86;100.00
10881;BME280;5493;48.884;8.338;2023-05-02T04:20:37;100564.94;;;11.89;100.00
10881;BME280;5493;48.884;8.338;2023-05-02T04:23:03;100566.63;;;11.83;100.00
10881;BME280;5493;48.884;8.338;2023-05-02T04:25:30;100567.56;;;11.39;100.00
10881;BME280;5493;48.884;8.338;2023-05-02T04:27:56;100566.41;;;11.22;100.00
10881;BME280;5493;48.884;8.338;2023-05-02T04:30:24;100584.66;;;11.26;100.00
10881;BME280;5493;48.884;8.338;2023-05-02T04:32:51;100584.59;;;11.02;100.00
10881;BME280;5493;48.884;8.338;2023-05-02T04:35:18;100586.03;;;11.04;100.00
10881;BME280;5493;48.884;8.338;2023-05-02T04:37:44;100594.97;;;11.36;100.00
10881;BME280;5493;48.884;8.338;2023-05-02T04:40:12;100598.78;;;11.28;100.00
10881;BME280;5493;48.884;8.338;2023-05-02T04:42:38;100594.06;;;11.17;100.00
10881;BME280;5493;48.884;8.338;2023-05-02T04:45:06;100605.31;;;11.08;100.00
10881;BME280;5493;48.884;8.338;2023-05-02T04:47:34;100606.00;;;11.34;100.00
10881;BME280;5493;48.884;8.338;2023-05-02T04:50:00;100604.41;;;11.58;100.00
10881;BME280;5493;48.884;8.338;2023-05-02T04:52:27;100613.91;;;11.29;100.00
10881;BME280;5493;48.884;8.338;2023-05-02T04:54:53;100622.72;;;11.12;100.00
10881;BME280;5493;48.884;8.338;2023-05-02T04:57:21;100615.63;;;11.55;100.00
10881;BME280;5493;48.884;8.338;2023-05-02T04:59:47;100619.06;;;11.69;100.00
10881;BME280;5493;48.884;8.338;2023-05-02T05:02:14;100625.00;;;11.53;100.00
10881;BME280;5493;48.884;8.338;2023-05-02T05:04:42;100639.06;;;11.61;100.00
10881;BME280;5493;48.884;8.338;2023-05-02T05:07:09;100643.28;;;11.89;100.00
10881;BME280;5493;48.884;8.338;2023-05-02T05:09:36;100634.34;;;11.88;100.00
10881;BME280;5493;48.884;8.338;2023-05-02T05:12:03;100646.03;;;11.82;100.00
10881;BME280;5493;48.884;8.338;2023-05-02T05:14:30;100649.03;;;11.99;100.00
10881;BME280;5493;48.884;8.338;2023-05-02T05:16:56;100653.13;;;12.08;100.00
10881;BME280;5493;48.884;8.338;2023-05-02T05:19:23;100653.06;;;11.83;100.00
10881;BME280;5493;48.884;8.338;2023-05-02T05:21:51;100652.69;;;11.79;100.00
10881;BME280;5493;48.884;8.338;2023-05-02T05:24:18;100663.75;;;12.03;100.00
10881;BME280;5493;48.884;8.338;2023-05-02T05:26:44;100665.56;;;12.09;100.00
10881;BME280;5493;48.884;8.338;2023-05-02T05:29:11;100675.91;;;12.18;100.00
10881;BME280;5493;48.884;8.338;2023-05-02T05:31:37;100667.09;;;12.29;100.00
10881;BME280;5493;48.884;8.338;2023-05-02T05:34:04;100672.25;;;12.31;100.00
10881;BME280;5493;48.884;8.338;2023-05-02T05:36:30;100680.31;;;12.13;100.00
10881;BME280;5493;48.884;8.338;2023-05-02T05:38:59;100684.22;;;12.17;100.00
10881;BME280;5493;48.884;8.338;2023-05-02T05:41:25;100688.41;;;12.38;100.00
10881;BME280;5493;48.884;8.338;2023-05-02T05:43:52;100684.94;;;12.73;100.00
10881;BME280;5493;48.884;8.338;2023-05-02T05:46:18;100686.91;;;12.84;100.00
10881;BME280;5493;48.884;8.338;2023-05-02T05:48:45;100691.44;;;12.91;100.00
10881;BME280;5493;48.884;8.338;2023-05-02T05:51:11;100685.94;;;12.79;100.00
10881;BME280;5493;48.884;8.338;2023-05-02T05:53:38;100680.91;;;13.01;100.00
10881;BME280;5493;48.884;8.338;2023-05-02T05:56:09;100682.59;;;13.02;100.00
10881;BME280;5493;48.884;8.338;2023-05-02T05:58:36;100684.25;;;13.21;100.00
10881;BME280;5493;48.884;8.338;2023-05-02T06:01:03;100682.16;;;13.23;100.00
10881;BME280;5493;48.884;8.338;2023-05-02T06:03:29;100686.47;;;13.42;100.00
10881;BME280;5493;48.884;8.338;2023-05-02T06:05:56;100690.38;;;13.46;100.00
10881;BME280;5493;48.884;8.338;2023-05-02T06:08:22;100685.69;;;13.53;100.00
10881;BME280;5493;48.884;8.338;2023-05-02T06:10:49;100688.78;;;13.57;100.00
10881;BME280;5493;48.884;8.338;2023-05-02T06:13:17;100688.81;;;13.68;100.00
10881;BME280;5493;48.884;8.338;2023-05-02T06:15:43;100691.53;;;13.68;100.00
10881;BME280;5493;48.884;8.338;2023-05-02T06:18:10;100695.66;;;13.71;100.00
10881;BME280;5493;48.884;8.338;2023-05-02T06:20:36;100700.75;;;13.79;100.00
10881;BME280;5493;48.884;8.338;2023-05-02T06:23:03;100698.13;;;14.02;100.00
10881;BME280;5493;48.884;8.338;2023-05-02T06:25:29;100702.44;;;13.80;100.00
10881;BME280;5493;48.884;8.338;2023-05-02T06:27:58;100700.53;;;13.80;100.00
10881;BME280;5493;48.884;8.338;2023-05-02T06:30:25;100698.97;;;14.03;100.00
10881;BME280;5493;48.884;8.338;2023-05-02T06:32:52;100702.72;;;14.55;100.00
10881;BME280;5493;48.884;8.338;2023-05-02T06:35:18;100706.16;;;14.97;100.00
10881;BME280;5493;48.884;8.338;2023-05-02T06:37:45;100703.41;;;15.48;100.00
10881;BME280;5493;48.884;8.338;2023-05-02T06:40:12;100717.53;;;16.02;100.00
10881;BME280;5493;48.884;8.338;2023-05-02T06:42:38;100720.38;;;16.23;100.00
10881;BME280;5493;48.884;8.338;2023-05-02T06:45:06;100720.75;;;15.99;100.00
10881;BME280;5493;48.884;8.338;2023-05-02T06:47:34;100729.72;;;15.99;100.00
10881;BME280;5493;48.884;8.338;2023-05-02T06:50:00;100728.75;;;16.05;100.00
10881;BME280;5493;48.884;8.338;2023-05-02T06:52:28;100729.00;;;15.75;100.00
10881;BME280;5493;48.884;8.338;2023-05-02T06:54:54;100738.50;;;15.90;100.00
10881;BME280;5493;48.884;8.338;2023-05-02T06:57:21;100745.00;;;15.60;100.00
10881;BME280;5493;48.884;8.338;2023-05-02T06:59:47;100754.25;;;15.48;100.00
10881;BME280;5493;48.884;8.338;2023-05-02T07:02:14;100757.69;;;15.43;100.00
10881;BME280;5493;48.884;8.338;2023-05-02T07:04:42;100771.00;;;15.45;100.00
10881;BME280;5493;48.884;8.338;2023-05-02T07:07:08;100764.19;;;15.31;100.00
10881;BME280;5493;48.884;8.338;2023-05-02T07:09:35;100772.94;;;15.21;100.00
10881;BME280;5493;48.884;8.338;2023-05-02T07:12:01;100771.28;;;15.32;100.00
10881;BME280;5493;48.884;8.338;2023-05-02T07:14:28;100767.88;;;15.24;100.00
10881;BME280;5493;48.884;8.338;2023-05-02T07:16:54;100771.88;;;15.34;100.00
10881;BME280;5493;48.884;8.338;2023-05-02T07:19:21;100765.91;;;15.48;100.00
10881;BME280;5493;48.884;8.338;2023-05-02T07:21:49;100766.19;;;15.35;100.00
10881;BME280;5493;48.884;8.338;2023-05-02T07:24:15;100771.69;;;15.63;100.00
10881;BME280;5493;48.884;8.338;2023-05-02T07:26:42;100770.47;;;15.83;100.00
10881;BME280;5493;48.884;8.338;2023-05-02T07:29:08;100771.03;;;15.85;100.00
10881;BME280;5493;48.884;8.338;2023-05-02T07:31:35;100782.41;;;15.30;100.00
10881;BME280;5493;48.884;8.338;2023-05-02T07:34:01;100777.56;;;15.84;100.00
10881;BME280;5493;48.884;8.338;2023-05-02T07:36:28;100781.00;;;15.79;100.00
10881;BME280;5493;48.884;8.338;2023-05-02T07:38:56;100773.50;;;15.98;100.00
10881;BME280;5493;48.884;8.338;2023-05-02T07:41:22;100776.25;;;16.14;100.00
10881;BME280;5493;48.884;8.338;2023-05-02T07:43:49;100775.56;;;15.79;100.00
10881;BME280;5493;48.884;8.338;2023-05-02T07:46:15;100769.38;;;16.40;100.00
10881;BME280;5493;48.884;8.338;2023-05-02T07:48:42;100774.69;;;16.63;100.00
10881;BME280;5493;48.884;8.338;2023-05-02T07:51:09;100770.81;;;16.76;100.00
10881;BME280;5493;48.884;8.338;2023-05-02T07:53:36;100775.84;;;16.67;100.00
10881;BME280;5493;48.884;8.338;2023-05-02T07:56:05;100773.41;;;17.21;100.00
10881;BME280;5493;48.884;8.338;2023-05-02T07:58:33;100775.91;;;17.66;100.00
10881;BME280;5493;48.884;8.338;2023-05-02T08:01:00;100776.09;;;17.81;100.00
10881;BME280;5493;48.884;8.338;2023-05-02T08:03:26;100783.13;;;17.99;100.00
10881;BME280;5493;48.884;8.338;2023-05-02T08:05:53;100781.59;;;18.35;100.00
10881;BME280;5493;48.884;8.338;2023-05-02T08:08:20;100780.06;;;18.76;100.00
10881;BME280;5493;48.884;8.338;2023-05-02T08:10:46;100780.03;;;19.07;100.00
10881;BME280;5493;48.884;8.338;2023-05-02T08:13:16;100786.50;;;19.38;100.00
10881;BME280;5493;48.884;8.338;2023-05-02T08:15:43;100786.44;;;19.80;100.00
10881;BME280;5493;48.884;8.338;2023-05-02T08:18:10;100782.34;;;19.78;100.00
10881;BME280;5493;48.884;8.338;2023-05-02T08:20:36;100790.75;;;19.61;100.00
10881;BME280;5493;48.884;8.338;2023-05-02T08:23:03;100784.19;;;20.90;100.00
10881;BME280;5493;48.884;8.338;2023-05-02T08:25:29;100774.88;;;20.76;100.00
10881;BME280;5493;48.884;8.338;2023-05-02T08:27:56;100775.72;;;21.91;100.00
10881;BME280;5493;48.884;8.338;2023-05-02T08:30:24;100776.16;;;21.39;100.00
10881;BME280;5493;48.884;8.338;2023-05-02T08:32:50;100779.94;;;21.53;100.00
10881;BME280;5493;48.884;8.338;2023-05-02T08:35:17;100778.09;;;21.33;100.00
10881;BME280;5493;48.884;8.338;2023-05-02T08:37:43;100783.63;;;21.08;100.00
10881;BME280;5493;48.884;8.338;2023-05-02T08:40:11;100796.63;;;19.95;100.00
10881;BME280;5493;48.884;8.338;2023-05-02T08:42:40;100792.72;;;19.24;100.00
10881;BME280;5493;48.884;8.338;2023-05-02T08:45:10;100797.78;;;19.05;100.00
10881;BME280;5493;48.884;8.338;2023-05-02T08:47:39;100800.53;;;19.47;100.00
10881;BME280;5493;48.884;8.338;2023-05-02T08:50:07;100796.59;;;19.85;100.00
10881;BME280;5493;48.884;8.338;2023-05-02T08:52:35;100802.63;;;19.40;100.00
10881;BME280;5493;48.884;8.338;2023-05-02T08:55:02;100807.41;;;19.54;100.00
10881;BME280;5493;48.884;8.338;2023-05-02T08:57:29;100809.22;;;18.65;100.00
10881;BME280;5493;48.884;8.338;2023-05-02T08:59:55;100817.22;;;19.08;100.00
10881;BME280;5493;48.884;8.338;2023-05-02T09:02:29;100810.72;;;19.20;100.00
10881;BME280;5493;48.884;8.338;2023-05-02T09:05:06;100814.63;;;18.92;100.00
10881;BME280;5493;48.884;8.338;2023-05-02T09:07:43;100819.00;;;19.30;100.00
10881;BME280;5493;48.884;8.338;2023-05-02T09:10:10;100823.22;;;18.47;100.00
10881;BME280;5493;48.884;8.338;2023-05-02T09:12:37;100821.50;;;19.36;100.00
10881;BME280;5493;48.884;8.338;2023-05-02T09:15:11;100819.75;;;18.83;100.00
10881;BME280;5493;48.884;8.338;2023-05-02T09:17:39;100813.41;;;19.14;100.00
10881;BME280;5493;48.884;8.338;2023-05-02T09:20:09;100815.31;;;19.14;100.00
10881;BME280;5493;48.884;8.338;2023-05-02T09:22:36;100820.19;;;18.43;100.00
10881;BME280;5493;48.884;8.338;2023-05-02T09:25:04;100821.28;;;18.69;100.00
10881;BME280;5493;48.884;8.338;2023-05-02T09:27:47;100817.38;;;19.81;100.00
10881;BME280;5493;48.884;8.338;2023-05-02T09:30:22;100821.19;;;21.13;100.00
10881;BME280;5493;48.884;8.338;2023-05-02T09:32:49;100817.41;;;19.91;100.00
10881;BME280;5493;48.884;8.338;2023-05-02T09:35:21;100816.59;;;19.85;100.00
10881;BME280;5493;48.884;8.338;2023-05-02T09:37:51;100816.53;;;21.13;100.00
10881;BME280;5493;48.884;8.338;2023-05-02T09:40:18;100810.47;;;22.11;100.00
10881;BME280;5493;48.884;8.338;2023-05-02T09:42:45;100804.53;;;22.42;100.00
10881;BME280;5493;48.884;8.338;2023-05-02T09:45:22;100806.91;;;23.22;100.00
10881;BME280;5493;48.884;8.338;2023-05-02T09:47:49;100799.56;;;22.39;100.00
10881;BME280;5493;48.884;8.338;2023-05-02T09:50:33;100817.88;;;21.36;100.00
10881;BME280;5493;48.884;8.338;2023-05-02T09:53:01;100827.13;;;21.70;100.00
10881;BME280;5493;48.884;8.338;2023-05-02T09:55:28;100817.59;;;21.37;100.00
10881;BME280;5493;48.884;8.338;2023-05-02T09:57:54;100825.00;;;20.46;100.00
10881;BME280;5493;48.884;8.338;2023-05-02T10:00:21;100836.25;;;21.35;100.00
10881;BME280;5493;48.884;8.338;2023-05-02T10:02:49;100826.69;;;21.23;100.00
10881;BME280;5493;48.884;8.338;2023-05-02T10:05:16;100835.03;;;20.20;100.00
10881;BME280;5493;48.884;8.338;2023-05-02T10:07:46;100839.94;;;20.13;100.00
10881;BME280;5493;48.884;8.338;2023-05-02T10:10:16;100833.66;;;20.18;100.00
10881;BME280;5493;48.884;8.338;2023-05-02T10:12:42;100831.75;;;20.18;100.00
10881;BME280;5493;48.884;8.338;2023-05-02T10:15:12;100833.78;;;20.53;100.00
10881;BME280;5493;48.884;8.338;2023-05-02T10:17:44;100824.97;;;21.42;100.00
10881;BME280;5493;48.884;8.338;2023-05-02T10:20:18;100818.75;;;22.05;100.00
10881;BME280;5493;48.884;8.338;2023-05-02T10:22:49;100819.72;;;22.25;100.00
10881;BME280;5493;48.884;8.338;2023-05-02T10:25:17;100819.16;;;23.05;100.00
10881;BME280;5493;48.884;8.338;2023-05-02T10:27:44;100819.03;;;23.16;100.00
10881;BME280;5493;48.884;8.338;2023-05-02T10:30:12;100813.91;;;23.85;100.00
10881;BME280;5493;48.884;8.338;2023-05-02T10:32:38;100816.69;;;23.33;100.00
10881;BME280;5493;48.884;8.338;2023-05-02T10:35:06;100806.06;;;23.21;100.00
10881;BME280;5493;48.884;8.338;2023-05-02T10:37:35;100809.06;;;23.53;100.00
10881;BME280;5493;48.884;8.338;2023-05-02T10:40:09;100808.47;;;23.57;100.00
10881;BME280;5493;48.884;8.338;2023-05-02T10:42:37;100813.53;;;22.87;100.00
10881;BME280;5493;48.884;8.338;2023-05-02T10:45:09;100809.34;;;23.76;100.00
10881;BME280;5493;48.884;8.338;2023-05-02T10:47:37;100806.19;;;23.35;100.00
10881;BME280;5493;48.884;8.338;2023-05-02T10:50:04;100806.34;;;23.20;100.00
10881;BME280;5493;48.884;8.338;2023-05-02T10:52:34;100805.00;;;22.88;100.00
10881;BME280;5493;48.884;8.338;2023-05-02T10:55:20;100806.53;;;23.28;100.00
10881;BME280;5493;48.884;8.338;2023-05-02T10:58:21;100814.53;;;24.01;100.00
10881;BME280;5493;48.884;8.338;2023-05-02T11:00:48;100806.38;;;23.72;100.00
10881;BME280;5493;48.884;8.338;2023-05-02T11:03:53;100806.34;;;24.71;97.31
10881;BME280;5493;48.884;8.338;2023-05-02T11:06:20;100799.84;;;24.06;100.00
10881;BME280;5493;48.884;8.338;2023-05-02T11:08:47;100804.75;;;23.66;100.00
10881;BME280;5493;48.884;8.338;2023-05-02T11:11:40;100801.19;;;22.84;100.00
10881;BME280;5493;48.884;8.338;2023-05-02T11:14:07;100803.69;;;23.86;100.00
10881;BME280;5493;48.884;8.338;2023-05-02T11:17:05;100805.38;;;23.05;100.00
10881;BME280;5493;48.884;8.338;2023-05-02T11:22:33;100798.72;;;22.83;100.00
10881;BME280;5493;48.884;8.338;2023-05-02T11:24:59;100806.09;;;22.87;100.00
10881;BME280;5493;48.884;8.338;2023-05-02T11:27:37;100803.22;;;22.30;100.00
10881;BME280;5493;48.884;8.338;2023-05-02T11:30:04;100805.72;;;23.28;100.00
10881;BME280;5493;48.884;8.338;2023-05-02T11:35:34;100793.63;;;22.27;100.00
10881;BME280;5493;48.884;8.338;2023-05-02T11:38:02;100794.63;;;21.92;100.00
10881;BME280;5493;48.884;8.338;2023-05-02T11:40:30;100796.84;;;21.95;100.00
10881;BME280;5493;48.884;8.338;2023-05-02T11:42:59;100793.28;;;21.80;100.00
10881;BME280;5493;48.884;8.338;2023-05-02T11:45:31;100803.88;;;21.32;100.00
10881;BME280;5493;48.884;8.338;2023-05-02T11:47:58;100801.13;;;21.27;100.00
10881;BME280;5493;48.884;8.338;2023-05-02T11:50:26;100790.00;;;21.78;100.00
10881;BME280;5493;48.884;8.338;2023-05-02T11:52:54;100799.00;;;20.69;100.00
10881;BME280;5493;48.884;8.338;2023-05-02T11:55:21;100795.13;;;20.44;100.00
10881;BME280;5493;48.884;8.338;2023-05-02T11:57:48;100807.38;;;20.17;100.00
10881;BME280;5493;48.884;8.338;2023-05-02T12:00:16;100809.56;;;19.47;100.00
10881;BME280;5493;48.884;8.338;2023-05-02T12:02:44;100805.31;;;19.77;100.00
10881;BME280;5493;48.884;8.338;2023-05-02T12:05:13;100819.31;;;19.90;100.00
10881;BME280;5493;48.884;8.338;2023-05-02T12:07:41;100808.72;;;19.47;100.00
10881;BME280;5493;48.884;8.338;2023-05-02T12:10:09;100814.00;;;19.22;100.00
10881;BME280;5493;48.884;8.338;2023-05-02T12:12:37;100809.09;;;19.65;100.00
10881;BME280;5493;48.884;8.338;2023-05-02T12:15:06;100820.44;;;19.89;100.00
10881;BME280;5493;48.884;8.338;2023-05-02T12:17:36;100819.34;;;19.95;100.00
10881;BME280;5493;48.884;8.338;2023-05-02T12:20:04;100811.31;;;20.56;100.00
10881;BME280;5493;48.884;8.338;2023-05-02T12:22:32;100817.06;;;21.20;100.00
10881;BME280;5493;48.884;8.338;2023-05-02T12:24:59;100810.91;;;21.74;100.00
10881;BME280;5493;48.884;8.338;2023-05-02T12:27:28;100805.84;;;22.01;100.00
10881;BME280;5493;48.884;8.338;2023-05-02T12:29:54;100810.19;;;22.12;100.00
10881;BME280;5493;48.884;8.338;2023-05-02T12:32:27;100816.13;;;21.65;100.00
10881;BME280;5493;48.884;8.338;2023-05-02T12:34:55;100807.28;;;22.42;100.00
10881;BME280;5493;48.884;8.338;2023-05-02T12:37:22;100810.38;;;22.65;100.00
10881;BME280;5493;48.884;8.338;2023-05-02T12:39:49;100812.78;;;21.83;100.00
10881;BME280;5493;48.884;8.338;2023-05-02T12:42:18;100819.34;;;21.87;100.00
10881;BME280;5493;48.884;8.338;2023-05-02T12:44:47;100817.84;;;21.46;100.00
10881;BME280;5493;48.884;8.338;2023-05-02T12:47:15;100806.88;;;22.59;100.00
10881;BME280;5493;48.884;8.338;2023-05-02T12:49:49;100815.13;;;22.54;99.45
10881;BME280;5493;48.884;8.338;2023-05-02T12:52:17;100818.91;;;23.02;98.44
10881;BME280;5493;48.884;8.338;2023-05-02T12:54:44;100816.47;;;23.00;94.52
10881;BME280;5493;48.884;8.338;2023-05-02T12:57:21;100814.59;;;22.91;96.80
10881;BME280;5493;48.884;8.338;2023-05-02T12:59:50;100826.75;;;23.47;92.94
10881;BME280;5493;48.884;8.338;2023-05-02T13:02:17;100819.13;;;23.34;94.40
10881;BME280;5493;48.884;8.338;2023-05-02T13:04:43;100812.47;;;22.83;98.03